Time;durP1;ratioP1;P1;durP2;ratioP2;P2;SDS_P1;SDS_P2;PMS_P1;PMS_P2;Temp;Humidity;BMP_temperature;BMP_pressure;BME280_temperature;BME280_humidity;BME280_pressure;Samples;Min_cycle;Max_cycle;Signal;HPM_P1;HPM_P2
2023/05/25 00:00:57;;;;;;;18.20;13.73;;;;;;;;;;4992687;28;20185;-71
2023/05/25 00:03:29;;;;;;;17.83;13.17;;;;;;;;;;4991235;28;20199;-71
2023/05/25 00:05:57;;;;;;;16.90;13.10;;;;;;;;;;4975835;28;20204;-71
2023/05/25 00:08:25;;;;;;;17.10;13.57;;;;;;;;;;4975070;28;20181;-71
2023/05/25 00:10:52;;;;;;;19.17;13.77;;;;;;;;;;4975186;28;20664;-71
2023/05/25 00:13:18;;;;;;;19.33;14.00;;;;;;;;;;4991992;28;20223;-71
2023/05/25 00:15:45;;;;;;;19.50;14.03;;;;;;;;;;4963418;28;20266;-71
2023/05/25 00:18:12;;;;;;;20.13;13.80;;;;;;;;;;5011304;28;20239;-71
2023/05/25 00:20:40;;;;;;;20.20;13.90;;;;;;;;;;5011198;28;20216;-71
2023/05/25 00:23:07;;;;;;;18.10;13.87;;;;;;;;;;5011317;28;20191;-71
2023/05/25 00:25:33;;;;;;;20.13;14.83;;;;;;;;;;5011792;28;20192;-71
2023/05/25 00:28:03;;;;;;;20.53;14.73;;;;;;;;;;5011619;28;20192;-71
2023/05/25 00:30:31;;;;;;;19.37;14.43;;;;;;;;;;4994096;28;20192;-71
2023/05/25 00:33:00;;;;;;;19.53;14.87;;;;;;;;;;5011565;28;20626;-71
2023/05/25 00:35:27;;;;;;;18.90;14.57;;;;;;;;;;4994135;28;20192;-71
2023/05/25 00:37:54;;;;;;;18.10;14.10;;;;;;;;;;4993903;28;20302;-71
2023/05/25 00:40:20;;;;;;;19.23;13.77;;;;;;;;;;4977570;28;20251;-71
2023/05/25 00:42:47;;;;;;;18.17;13.97;;;;;;;;;;5011144;28;20196;-71
2023/05/25 00:45:16;;;;;;;18.53;13.80;;;;;;;;;;4978080;28;20211;-71
2023/05/25 00:47:42;;;;;;;16.33;13.87;;;;;;;;;;5011487;28;20555;-71
2023/05/25 00:50:11;;;;;;;17.37;13.80;;;;;;;;;;4993794;28;20204;-71
2023/05/25 00:52:38;;;;;;;17.07;13.27;;;;;;;;;;4993805;28;20231;-71
2023/05/25 00:55:05;;;;;;;17.37;13.53;;;;;;;;;;5011017;28;20198;-71
2023/05/25 00:57:32;;;;;;;19.07;14.00;;;;;;;;;;4977481;28;20287;-71
2023/05/25 01:00:00;;;;;;;18.93;14.33;;;;;;;;;;5011170;28;20267;-70
2023/05/25 01:02:27;;;;;;;17.70;14.17;;;;;;;;;;4993693;28;20651;-70
2023/05/25 01:04:58;;;;;;;23.57;14.77;;;;;;;;;;4993790;28;20230;-70
2023/05/25 01:07:30;;;;;;;20.13;14.60;;;;;;;;;;4993023;28;20200;-70
2023/05/25 01:09:57;;;;;;;21.27;16.13;;;;;;;;;;5010811;28;20191;-71
2023/05/25 01:12:26;;;;;;;22.10;16.63;;;;;;;;;;4976925;28;20184;-71
2023/05/25 01:14:53;;;;;;;20.00;15.97;;;;;;;;;;4992885;28;20191;-71
2023/05/25 01:17:20;;;;;;;21.83;16.00;;;;;;;;;;4975619;28;20229;-71
2023/05/25 01:19:47;;;;;;;21.70;15.50;;;;;;;;;;4973453;28;20243;-71
2023/05/25 01:22:37;;;;;;;23.63;17.73;;;;;;;;;;4960276;28;20556;-70
2023/05/25 01:25:08;;;;;;;25.67;17.83;;;;;;;;;;4973719;28;20197;-71
2023/05/25 01:27:38;;;;;;;22.77;17.43;;;;;;;;;;4990917;28;20251;-71
2023/05/25 01:30:06;;;;;;;28.57;18.70;;;;;;;;;;4990864;28;20189;-71
2023/05/25 01:32:34;;;;;;;25.43;17.93;;;;;;;;;;4973533;28;20259;-71
2023/05/25 01:35:02;;;;;;;24.13;18.13;;;;;;;;;;4973296;28;20240;-71
2023/05/25 01:37:30;;;;;;;24.87;18.20;;;;;;;;;;4957462;28;20220;-71
2023/05/25 01:39:57;;;;;;;26.60;18.67;;;;;;;;;;4973508;28;20694;-71
2023/05/25 01:42:24;;;;;;;26.83;19.07;;;;;;;;;;4990582;28;20189;-70
2023/05/25 02:17:49;;;;;;;25.90;16.20;;;;;;;;;;4853483;28;20270;-71
2023/05/25 02:20:18;;;;;;;25.27;15.10;;;;;;;;;;4991905;28;20220;-71
2023/05/25 02:22:45;;;;;;;25.23;16.03;;;;;;;;;;4992517;28;20235;-71
2023/05/25 02:25:13;;;;;;;20.67;14.67;;;;;;;;;;4992329;28;20225;-71
2023/05/25 02:27:40;;;;;;;22.57;15.30;;;;;;;;;;4991894;28;20184;-71
2023/05/25 02:30:07;;;;;;;23.00;15.23;;;;;;;;;;4992361;28;20200;-71
2023/05/25 02:32:34;;;;;;;21.70;14.77;;;;;;;;;;5009916;28;20279;-71
2023/05/25 02:35:01;;;;;;;22.37;14.57;;;;;;;;;;4992418;28;20504;-71
2023/05/25 02:37:28;;;;;;;22.43;14.53;;;;;;;;;;4992467;28;20597;-71
2023/05/25 02:39:55;;;;;;;26.67;15.50;;;;;;;;;;4992071;28;20200;-71
2023/05/25 02:42:22;;;;;;;21.37;14.37;;;;;;;;;;4992276;28;20192;-71
2023/05/25 02:44:48;;;;;;;24.90;15.37;;;;;;;;;;5009759;28;20187;-70
2023/05/25 02:47:16;;;;;;;20.87;14.87;;;;;;;;;;5009692;28;20196;-71
2023/05/25 02:49:44;;;;;;;21.93;14.47;;;;;;;;;;4976484;28;20204;-71
2023/05/25 02:52:11;;;;;;;19.40;14.10;;;;;;;;;;4992329;28;20200;-71
2023/05/25 02:54:39;;;;;;;22.03;14.73;;;;;;;;;;4991980;28;20686;-71
2023/05/25 02:57:07;;;;;;;21.47;14.57;;;;;;;;;;4976094;28;20648;-71
2023/05/25 02:59:34;;;;;;;20.23;15.07;;;;;;;;;;5009935;28;20537;-71
2023/05/25 03:02:01;;;;;;;21.07;14.67;;;;;;;;;;5009488;28;20662;-71
2023/05/25 03:04:30;;;;;;;26.00;14.40;;;;;;;;;;5009637;28;20222;-71
2023/05/25 03:06:57;;;;;;;19.80;13.60;;;;;;;;;;4976251;28;20212;-71
2023/05/25 03:09:24;;;;;;;20.83;13.83;;;;;;;;;;5009694;28;20192;-71
2023/05/25 03:11:50;;;;;;;20.00;13.77;;;;;;;;;;4975829;28;20195;-71
2023/05/25 03:14:19;;;;;;;22.23;13.50;;;;;;;;;;4991845;28;20220;-71
2023/05/25 03:16:55;;;;;;;19.63;12.90;;;;;;;;;;4977521;28;20696;-71
2023/05/25 03:19:25;;;;;;;22.30;12.93;;;;;;;;;;4972584;28;20243;-71
2023/05/25 03:21:52;;;;;;;22.13;13.57;;;;;;;;;;4972279;28;20197;-70
2023/05/25 03:24:19;;;;;;;19.33;14.07;;;;;;;;;;4972436;28;20738;-70
2023/05/25 03:26:45;;;;;;;19.23;13.40;;;;;;;;;;4989764;28;20264;-70
2023/05/25 03:29:13;;;;;;;23.53;14.53;;;;;;;;;;4972498;28;20203;-69
2023/05/25 03:31:39;;;;;;;22.23;13.80;;;;;;;;;;4971853;28;20205;-70
2023/05/25 03:34:07;;;;;;;19.90;13.47;;;;;;;;;;4989705;28;20236;-70
2023/05/25 03:36:37;;;;;;;20.87;13.73;;;;;;;;;;4972315;28;20203;-70
2023/05/25 03:39:05;;;;;;;17.97;12.87;;;;;;;;;;4958526;28;20224;-70
2023/05/25 03:41:31;;;;;;;20.67;13.40;;;;;;;;;;4975821;28;20655;-70
2023/05/25 03:43:58;;;;;;;20.10;12.97;;;;;;;;;;4975596;28;20203;-70
2023/05/25 03:46:25;;;;;;;19.17;12.90;;;;;;;;;;4959550;28;20199;-70
2023/05/25 03:48:55;;;;;;;18.57;13.17;;;;;;;;;;4975689;28;20228;-71
2023/05/25 03:51:21;;;;;;;20.07;12.07;;;;;;;;;;4992987;28;20637;-71
2023/05/25 03:53:48;;;;;;;19.43;12.53;;;;;;;;;;4975436;28;20333;-70
2023/05/25 03:56:15;;;;;;;14.57;11.70;;;;;;;;;;4975657;28;20201;-72
2023/05/25 03:58:42;;;;;;;20.83;12.87;;;;;;;;;;4975293;28;20205;-71
2023/05/25 04:01:10;;;;;;;17.13;12.07;;;;;;;;;;4992729;28;20228;-71
2023/05/25 04:03:37;;;;;;;19.97;11.43;;;;;;;;;;4959686;28;20652;-71
2023/05/25 04:06:04;;;;;;;17.90;12.00;;;;;;;;;;4975213;28;20193;-71
2023/05/25 04:08:30;;;;;;;19.23;11.97;;;;;;;;;;4975144;28;20217;-70
2023/05/25 04:10:57;;;;;;;18.53;12.03;;;;;;;;;;4974961;28;20217;-71
2023/05/25 04:13:26;;;;;;;16.57;10.93;;;;;;;;;;4992514;28;20220;-71
2023/05/25 04:15:54;;;;;;;19.20;11.30;;;;;;;;;;4980808;28;20188;-71
2023/05/25 04:18:26;;;;;;;15.77;10.50;;;;;;;;;;4994358;28;20231;-71
2023/05/25 04:20:54;;;;;;;16.07;10.63;;;;;;;;;;5012025;28;20594;-70
2023/05/25 04:23:22;;;;;;;14.30;10.33;;;;;;;;;;4994378;28;20974;-71
2023/05/25 04:25:52;;;;;;;16.00;10.27;;;;;;;;;;4978728;28;20196;-71
2023/05/25 04:28:19;;;;;;;15.13;9.50;;;;;;;;;;5011911;28;20192;-70
2023/05/25 04:31:02;;;;;;;15.07;10.33;;;;;;;;;;4994172;28;20212;-71
2023/05/25 04:33:37;;;;;;;14.70;9.60;;;;;;;;;;4994034;28;20208;-70
2023/05/25 04:36:15;;;;;;;16.70;10.33;;;;;;;;;;4994049;28;20195;-70
2023/05/25 04:38:46;;;;;;;18.00;9.90;;;;;;;;;;4994306;28;20203;-70
2023/05/25 04:41:14;;;;;;;21.27;10.60;;;;;;;;;;4994100;28;20702;-72
2023/05/25 04:43:46;;;;;;;13.67;10.03;;;;;;;;;;4993568;28;20203;-71
2023/05/25 04:46:36;;;;;;;14.00;9.67;;;;;;;;;;4993898;28;20216;-71
2023/05/25 04:49:04;;;;;;;13.13;8.67;;;;;;;;;;4993495;28;20204;-71
2023/05/25 04:51:31;;;;;;;18.80;9.33;;;;;;;;;;4977584;28;20188;-71
2023/05/25 04:53:58;;;;;;;12.73;8.50;;;;;;;;;;4993967;28;20607;-71
2023/05/25 04:56:26;;;;;;;17.17;9.33;;;;;;;;;;4993481;28;20703;-71
2023/05/25 04:58:53;;;;;;;11.93;8.47;;;;;;;;;;4993494;28;20674;-71
2023/05/25 05:01:19;;;;;;;14.93;8.40;;;;;;;;;;4993698;28;20200;-70
2023/05/25 05:03:47;;;;;;;17.30;8.53;;;;;;;;;;4993545;28;20689;-71
2023/05/25 05:06:14;;;;;;;16.50;8.43;;;;;;;;;;5011298;28;20192;-71
2023/05/25 05:08:41;;;;;;;10.73;7.83;;;;;;;;;;4993832;28;20856;-71
2023/05/25 05:11:08;;;;;;;13.33;7.60;;;;;;;;;;4993627;28;20203;-71
2023/05/25 05:13:35;;;;;;;14.53;7.67;;;;;;;;;;4993598;28;20249;-70
2023/05/25 05:16:02;;;;;;;13.03;7.17;;;;;;;;;;4986398;28;20252;-70
2023/05/25 05:18:30;;;;;;;12.13;7.00;;;;;;;;;;4973630;28;20730;-70
2023/05/25 05:20:58;;;;;;;10.17;6.80;;;;;;;;;;4958220;28;20200;-70
2023/05/25 05:23:25;;;;;;;10.13;6.60;;;;;;;;;;4973665;28;20209;-70
2023/05/25 05:25:53;;;;;;;10.33;6.10;;;;;;;;;;4957953;28;20291;-70
2023/05/25 05:28:26;;;;;;;13.83;6.47;;;;;;;;;;4973854;28;20203;-70
2023/05/25 05:30:53;;;;;;;9.83;6.20;;;;;;;;;;4991333;28;20188;-70
2023/05/25 05:33:19;;;;;;;12.20;6.93;;;;;;;;;;4957742;28;20184;-70
2023/05/25 05:35:48;;;;;;;10.87;6.20;;;;;;;;;;4991153;28;20623;-70
2023/05/25 05:38:19;;;;;;;13.90;6.60;;;;;;;;;;4973649;28;20212;-71
2023/05/25 05:40:46;;;;;;;9.67;6.20;;;;;;;;;;4957400;28;20201;-71
2023/05/25 05:43:18;;;;;;;8.20;5.93;;;;;;;;;;4973775;28;20208;-71
2023/05/25 05:45:45;;;;;;;9.57;5.93;;;;;;;;;;4990916;28;20193;-70
2023/05/25 05:48:12;;;;;;;9.33;5.50;;;;;;;;;;4973462;28;20189;-71
2023/05/25 05:50:38;;;;;;;8.83;5.97;;;;;;;;;;4973424;28;20243;-71
2023/05/25 05:53:09;;;;;;;12.10;6.60;;;;;;;;;;4949977;28;20201;-71
2023/05/25 05:55:37;;;;;;;9.93;6.50;;;;;;;;;;4990937;28;20217;-71
2023/05/25 05:58:04;;;;;;;10.50;5.77;;;;;;;;;;4973152;28;20593;-71
2023/05/25 06:00:31;;;;;;;10.93;6.00;;;;;;;;;;4990110;28;20239;-71
2023/05/25 06:02:59;;;;;;;10.20;5.90;;;;;;;;;;4957263;28;20292;-71
2023/05/25 06:05:29;;;;;;;9.57;5.70;;;;;;;;;;4973260;28;20287;-71
2023/05/25 06:07:57;;;;;;;11.83;5.73;;;;;;;;;;4957443;28;20196;-71
2023/05/25 06:10:24;;;;;;;10.17;5.77;;;;;;;;;;4990513;28;20174;-71
2023/05/25 06:12:52;;;;;;;10.97;5.93;;;;;;;;;;4972989;28;20686;-71
2023/05/25 06:15:20;;;;;;;10.53;5.60;;;;;;;;;;4974137;28;20723;-71
2023/05/25 06:17:51;;;;;;;10.73;6.07;;;;;;;;;;4993401;28;20239;-71
2023/05/25 06:20:19;;;;;;;11.97;5.93;;;;;;;;;;4992496;28;20282;-71
2023/05/25 06:22:46;;;;;;;9.80;6.17;;;;;;;;;;4991930;28;20219;-71
2023/05/25 06:25:13;;;;;;;8.73;5.97;;;;;;;;;;5009894;28;20204;-71
2023/05/25 06:27:40;;;;;;;10.27;6.10;;;;;;;;;;4992498;28;20242;-71
2023/05/25 06:30:07;;;;;;;10.93;5.63;;;;;;;;;;4984015;28;20291;-71
2023/05/25 06:32:35;;;;;;;10.03;6.20;;;;;;;;;;4992273;28;20207;-70
2023/05/25 06:35:02;;;;;;;8.13;5.03;;;;;;;;;;4992262;28;20224;-70
2023/05/25 06:37:34;;;;;;;9.33;5.80;;;;;;;;;;4992145;28;20262;-70
2023/05/25 06:40:02;;;;;;;11.77;6.00;;;;;;;;;;4992329;28;20262;-70
2023/05/25 06:42:29;;;;;;;8.87;5.40;;;;;;;;;;4991990;28;20188;-70
2023/05/25 06:44:56;;;;;;;9.37;5.73;;;;;;;;;;4992243;28;20188;-70
2023/05/25 06:47:24;;;;;;;10.43;5.40;;;;;;;;;;4992022;28;20230;-71
2023/05/25 06:49:51;;;;;;;7.90;5.30;;;;;;;;;;4976153;28;20203;-70
2023/05/25 06:52:18;;;;;;;7.37;5.30;;;;;;;;;;5009679;28;20275;-70
2023/05/25 06:54:44;;;;;;;8.60;5.30;;;;;;;;;;4992108;28;20754;-70
2023/05/25 06:57:11;;;;;;;7.30;4.70;;;;;;;;;;5009368;28;20282;-71
2023/05/25 06:59:38;;;;;;;7.27;4.93;;;;;;;;;;5009807;28;20188;-70
2023/05/25 07:02:05;;;;;;;9.33;5.53;;;;;;;;;;5009611;28;20275;-71
2023/05/25 07:04:33;;;;;;;11.70;5.30;;;;;;;;;;5009655;28;20199;-70
2023/05/25 07:07:00;;;;;;;10.00;5.17;;;;;;;;;;5009901;28;20659;-70
2023/05/25 07:09:27;;;;;;;7.63;5.00;;;;;;;;;;5009556;28;20218;-70
2023/05/25 07:11:54;;;;;;;9.13;5.23;;;;;;;;;;5009885;28;20192;-70
2023/05/25 07:14:21;;;;;;;7.73;4.53;;;;;;;;;;4995876;28;20710;-70
2023/05/25 07:16:47;;;;;;;7.83;4.83;;;;;;;;;;4999908;28;20228;-70
2023/05/25 07:19:15;;;;;;;7.57;4.73;;;;;;;;;;4976185;28;20220;-70
2023/05/25 07:21:47;;;;;;;11.17;4.87;;;;;;;;;;4993577;28;20212;-70
2023/05/25 07:24:14;;;;;;;7.43;5.17;;;;;;;;;;4993463;28;20174;-69
2023/05/25 07:26:43;;;;;;;8.10;4.83;;;;;;;;;;4993750;28;20607;-70
2023/05/25 07:29:11;;;;;;;6.80;4.43;;;;;;;;;;4993327;28;20291;-69
2023/05/25 07:31:38;;;;;;;7.87;4.70;;;;;;;;;;4993621;28;20240;-69
2023/05/25 07:34:04;;;;;;;7.90;4.60;;;;;;;;;;4975844;28;20205;-69
2023/05/25 07:36:31;;;;;;;7.87;4.37;;;;;;;;;;4993414;28;20215;-69
2023/05/25 07:38:58;;;;;;;10.60;4.90;;;;;;;;;;4975886;28;20231;-70
2023/05/25 07:41:25;;;;;;;7.27;5.23;;;;;;;;;;4993312;28;20193;-70
2023/05/25 07:43:52;;;;;;;8.70;4.53;;;;;;;;;;4993049;28;20675;-70
2023/05/25 07:46:23;;;;;;;5.77;4.67;;;;;;;;;;4993472;28;20272;-69
2023/05/25 07:48:51;;;;;;;6.37;4.17;;;;;;;;;;4992847;28;20192;-70
2023/05/25 07:51:21;;;;;;;8.20;4.43;;;;;;;;;;4993254;28;20200;-70
2023/05/25 07:53:48;;;;;;;5.70;4.30;;;;;;;;;;4976254;28;20301;-70
2023/05/25 07:56:15;;;;;;;7.00;4.70;;;;;;;;;;4993226;28;20193;-70
2023/05/25 07:58:42;;;;;;;8.50;4.17;;;;;;;;;;4992637;28;20196;-70
2023/05/25 08:01:08;;;;;;;6.37;4.07;;;;;;;;;;4975290;28;20192;-70
2023/05/25 08:03:36;;;;;;;6.50;3.80;;;;;;;;;;4992964;28;20189;-70
2023/05/25 08:06:15;;;;;;;7.63;4.30;;;;;;;;;;4977663;28;20698;-69
2023/05/25 08:08:45;;;;;;;6.30;3.83;;;;;;;;;;4975417;28;20656;-70
2023/05/25 08:11:13;;;;;;;5.80;3.60;;;;;;;;;;4975042;28;20282;-70
2023/05/25 08:13:40;;;;;;;7.87;4.30;;;;;;;;;;4992611;28;20216;-70
2023/05/25 08:16:08;;;;;;;5.57;3.73;;;;;;;;;;5000095;28;20213;-70
2023/05/25 08:18:35;;;;;;;7.40;4.13;;;;;;;;;;5011662;28;20279;-70
2023/05/25 08:21:02;;;;;;;8.73;5.80;;;;;;;;;;4994170;28;20223;-70
2023/05/25 08:23:29;;;;;;;7.83;4.53;;;;;;;;;;4993908;28;20734;-70
2023/05/25 08:25:56;;;;;;;7.03;3.63;;;;;;;;;;4994232;28;20199;-70
2023/05/25 08:28:23;;;;;;;6.87;3.90;;;;;;;;;;4994555;28;20204;-71
2023/05/25 08:30:52;;;;;;;6.07;3.67;;;;;;;;;;5012103;28;20268;-70
2023/05/25 08:33:21;;;;;;;5.87;4.27;;;;;;;;;;4994923;28;20192;-70
2023/05/25 08:35:52;;;;;;;6.60;4.20;;;;;;;;;;5011868;28;20262;-70
2023/05/25 08:38:23;;;;;;;7.33;4.10;;;;;;;;;;5011812;28;20239;-70
2023/05/25 08:41:12;;;;;;;5.60;4.00;;;;;;;;;;5011665;28;20192;-70
2023/05/25 08:43:40;;;;;;;7.03;3.90;;;;;;;;;;5011473;28;20196;-70
2023/05/25 08:46:07;;;;;;;6.27;3.77;;;;;;;;;;5003448;28;20587;-71
2023/05/25 08:48:34;;;;;;;5.67;3.77;;;;;;;;;;4994069;28;20214;-70
2023/05/25 08:51:08;;;;;;;4.33;3.90;;;;;;;;;;5011214;28;20663;-70
2023/05/25 08:53:38;;;;;;;5.80;3.83;;;;;;;;;;5011555;28;20278;-70
2023/05/25 08:56:20;;;;;;;5.10;3.60;;;;;;;;;;5011345;28;20239;-70
2023/05/25 08:59:10;;;;;;;6.47;3.83;;;;;;;;;;4994171;28;20197;-70
2023/05/25 09:01:38;;;;;;;6.60;3.63;;;;;;;;;;5011523;28;20188;-71
2023/05/25 09:04:05;;;;;;;5.17;3.60;;;;;;;;;;4994325;28;20247;-71
2023/05/25 09:06:35;;;;;;;5.37;3.87;;;;;;;;;;4993706;28;20196;-71
2023/05/25 09:09:03;;;;;;;5.57;3.60;;;;;;;;;;4978309;28;20327;-71
2023/05/25 09:11:30;;;;;;;6.03;4.10;;;;;;;;;;4993945;28;20198;-71
2023/05/25 09:14:06;;;;;;;6.97;3.80;;;;;;;;;;5010965;28;20206;-70
2023/05/25 09:16:33;;;;;;;4.80;3.80;;;;;;;;;;4982378;28;20649;-70
2023/05/25 09:19:00;;;;;;;8.50;4.63;;;;;;;;;;4991318;28;20200;-70
2023/05/25 09:21:26;;;;;;;6.87;4.47;;;;;;;;;;4991275;28;20224;-71
2023/05/25 09:23:54;;;;;;;5.90;3.67;;;;;;;;;;4958583;28;20299;-70
2023/05/25 09:26:21;;;;;;;4.90;3.80;;;;;;;;;;4974110;28;20199;-70
2023/05/25 09:28:48;;;;;;;6.97;3.93;;;;;;;;;;4990304;28;20209;-70
2023/05/25 09:31:15;;;;;;;5.67;4.30;;;;;;;;;;4990899;28;20196;-70
2023/05/25 09:33:42;;;;;;;7.93;4.37;;;;;;;;;;4991204;28;20275;-70
2023/05/25 09:36:09;;;;;;;8.67;5.03;;;;;;;;;;4972811;28;20233;-70
2023/05/25 09:38:36;;;;;;;6.13;4.23;;;;;;;;;;4973980;28;20620;-70
2023/05/25 09:41:04;;;;;;;7.33;4.17;;;;;;;;;;4991005;28;20686;-70
2023/05/25 09:43:34;;;;;;;4.70;3.80;;;;;;;;;;4974036;28;20188;-70
2023/05/25 09:46:12;;;;;;;6.03;3.77;;;;;;;;;;4959003;28;20205;-70
2023/05/25 09:48:39;;;;;;;4.87;3.63;;;;;;;;;;4973839;28;20240;-70
2023/05/25 09:51:09;;;;;;;6.27;3.43;;;;;;;;;;4965571;28;20292;-70
2023/05/25 09:53:35;;;;;;;6.03;4.50;;;;;;;;;;4957629;28;20197;-70
2023/05/25 09:56:02;;;;;;;7.13;3.87;;;;;;;;;;4990577;28;20209;-71
2023/05/25 09:58:29;;;;;;;10.60;4.27;;;;;;;;;;4990520;28;20187;-71
2023/05/25 10:00:57;;;;;;;5.83;3.80;;;;;;;;;;4990786;28;20280;-70
2023/05/25 10:03:24;;;;;;;6.87;3.50;;;;;;;;;;4990557;28;20688;-71
2023/05/25 10:05:51;;;;;;;5.07;3.90;;;;;;;;;;4990660;28;20193;-71
2023/05/25 10:08:18;;;;;;;5.73;3.90;;;;;;;;;;4973238;28;20630;-71
2023/05/25 10:10:45;;;;;;;4.93;3.77;;;;;;;;;;4973586;28;20189;-71
2023/05/25 10:13:12;;;;;;;5.60;4.40;;;;;;;;;;4973187;28;20192;-71
2023/05/25 10:15:40;;;;;;;7.77;5.10;;;;;;;;;;4977181;28;20219;-70
2023/05/25 10:18:07;;;;;;;5.73;4.67;;;;;;;;;;4984458;28;20251;-71
2023/05/25 10:20:35;;;;;;;6.23;3.57;;;;;;;;;;4992867;28;20607;-71
2023/05/25 10:23:11;;;;;;;6.00;3.50;;;;;;;;;;4992349;28;20227;-70
2023/05/25 10:25:40;;;;;;;4.67;3.63;;;;;;;;;;4992323;28;20708;-71
2023/05/25 10:28:13;;;;;;;4.63;3.33;;;;;;;;;;5009797;28;20184;-70
2023/05/25 10:30:40;;;;;;;4.60;3.70;;;;;;;;;;4992618;28;20199;-71
2023/05/25 10:33:10;;;;;;;4.40;3.60;;;;;;;;;;4992180;28;20256;-70
2023/05/25 10:35:39;;;;;;;5.17;3.27;;;;;;;;;;5009822;28;20226;-70
2023/05/25 10:38:29;;;;;;;7.33;4.10;;;;;;;;;;4982367;28;20315;-70
2023/05/25 10:40:57;;;;;;;5.27;3.53;;;;;;;;;;4992673;28;20563;-70
2023/05/25 10:43:24;;;;;;;5.10;3.60;;;;;;;;;;4992052;28;20613;-70
2023/05/25 10:45:51;;;;;;;5.00;4.30;;;;;;;;;;4976535;28;20224;-71
2023/05/25 10:48:18;;;;;;;7.33;4.20;;;;;;;;;;5012678;28;20740;-71
2023/05/25 10:50:51;;;;;;;8.43;4.17;;;;;;;;;;4996476;28;20292;-70
2023/05/25 10:53:19;;;;;;;5.03;4.00;;;;;;;;;;4996483;28;20212;-70
2023/05/25 10:55:52;;;;;;;5.63;3.53;;;;;;;;;;5013489;28;20213;-70
2023/05/25 10:58:20;;;;;;;4.60;3.83;;;;;;;;;;5013684;28;20223;-71
2023/05/25 11:01:02;;;;;;;5.93;3.70;;;;;;;;;;5013241;28;20219;-70
2023/05/25 11:03:48;;;;;;;5.67;3.37;;;;;;;;;;4996045;28;20222;-71
2023/05/25 11:06:16;;;;;;;4.30;3.57;;;;;;;;;;5013625;28;20270;-71
2023/05/25 11:08:52;;;;;;;21.77;4.77;;;;;;;;;;4996524;28;20222;-70
2023/05/25 11:11:21;;;;;;;3.90;3.50;;;;;;;;;;4996520;28;20708;-71
2023/05/25 11:13:48;;;;;;;5.17;3.57;;;;;;;;;;4996143;28;20670;-71
2023/05/25 11:16:18;;;;;;;5.13;4.07;;;;;;;;;;4970870;28;20242;-71
2023/05/25 11:18:53;;;;;;;6.87;4.20;;;;;;;;;;4993821;28;20201;-71
2023/05/25 11:21:25;;;;;;;6.33;3.80;;;;;;;;;;4977056;28;20213;-71
2023/05/25 11:23:55;;;;;;;12.60;3.90;;;;;;;;;;4993753;28;20547;-71
2023/05/25 11:26:26;;;;;;;14.70;4.03;;;;;;;;;;4993492;28;20211;-71
2023/05/25 11:28:55;;;;;;;4.50;3.57;;;;;;;;;;4993634;28;20212;-71
2023/05/25 11:31:29;;;;;;;5.50;3.50;;;;;;;;;;4976331;28;20227;-71
2023/05/25 11:34:03;;;;;;;4.47;3.43;;;;;;;;;;4977353;28;20273;-71
2023/05/25 11:36:34;;;;;;;4.73;3.27;;;;;;;;;;4993057;28;20223;-70
2023/05/25 11:39:05;;;;;;;4.97;3.57;;;;;;;;;;4976340;28;20185;-70
2023/05/25 11:41:47;;;;;;;5.80;3.70;;;;;;;;;;4962325;28;20765;-70
2023/05/25 11:44:14;;;;;;;7.07;3.67;;;;;;;;;;4976122;28;20202;-70
2023/05/25 11:46:42;;;;;;;5.50;3.67;;;;;;;;;;4975986;28;20597;-70
2023/05/25 11:49:09;;;;;;;6.73;3.87;;;;;;;;;;4976124;28;20189;-70
2023/05/25 11:51:39;;;;;;;3.83;3.13;;;;;;;;;;4992828;28;20185;-70
2023/05/25 11:54:07;;;;;;;7.23;3.10;;;;;;;;;;4992781;28;20189;-70
2023/05/25 11:56:35;;;;;;;5.17;3.37;;;;;;;;;;4976198;28;20635;-70
2023/05/25 11:59:01;;;;;;;4.70;3.53;;;;;;;;;;4974329;28;20289;-70
2023/05/25 12:01:30;;;;;;;6.10;3.63;;;;;;;;;;4992556;28;20598;-70
2023/05/25 12:03:57;;;;;;;5.77;3.63;;;;;;;;;;4992951;28;20196;-70
2023/05/25 12:06:29;;;;;;;5.93;3.90;;;;;;;;;;4975665;28;20676;-70
2023/05/25 12:08:55;;;;;;;5.10;3.83;;;;;;;;;;4992791;28;20223;-70
2023/05/25 12:11:33;;;;;;;4.23;3.27;;;;;;;;;;4975237;28;20263;-70
2023/05/25 12:14:00;;;;;;;4.23;3.10;;;;;;;;;;4992486;28;20185;-70
2023/05/25 12:16:26;;;;;;;4.40;2.90;;;;;;;;;;4984986;28;20215;-69
2023/05/25 12:18:54;;;;;;;4.20;2.77;;;;;;;;;;4979112;28;20199;-70
2023/05/25 12:21:21;;;;;;;4.87;3.23;;;;;;;;;;4994855;28;20204;-69
2023/05/25 12:23:48;;;;;;;5.07;3.00;;;;;;;;;;4994656;28;20278;-70
2023/05/25 12:26:15;;;;;;;5.77;2.50;;;;;;;;;;4994701;28;20215;-70
2023/05/25 12:28:59;;;;;;;4.93;3.00;;;;;;;;;;4978325;28;20290;-70
2023/05/25 12:31:27;;;;;;;4.73;3.43;;;;;;;;;;4978884;28;20219;-69
2023/05/25 12:34:03;;;;;;;3.77;3.20;;;;;;;;;;4994455;28;20192;-69
2023/05/25 12:36:37;;;;;;;5.13;3.20;;;;;;;;;;5011809;28;20220;-69
2023/05/25 12:39:07;;;;;;;5.40;3.03;;;;;;;;;;5011638;28;20226;-70
2023/05/25 12:41:43;;;;;;;4.07;2.67;;;;;;;;;;5011945;28;20259;-70
2023/05/25 12:44:20;;;;;;;5.40;2.70;;;;;;;;;;4994579;28;20598;-70
2023/05/25 12:46:53;;;;;;;5.97;3.40;;;;;;;;;;5011673;28;20195;-69
2023/05/25 12:49:32;;;;;;;5.90;4.10;;;;;;;;;;4994267;28;20216;-70
2023/05/25 12:52:00;;;;;;;5.13;3.07;;;;;;;;;;4974958;28;20227;-70
2023/05/25 12:54:39;;;;;;;4.33;2.97;;;;;;;;;;5011465;28;20695;-70
2023/05/25 12:57:12;;;;;;;3.67;2.60;;;;;;;;;;5011041;28;20236;-71
2023/05/25 12:59:40;;;;;;;6.37;2.87;;;;;;;;;;4994110;28;20184;-70
2023/05/25 13:02:12;;;;;;;4.47;2.70;;;;;;;;;;5011207;28;20765;-70
2023/05/25 13:04:43;;;;;;;5.93;2.80;;;;;;;;;;4994626;28;20172;-70
2023/05/25 13:07:10;;;;;;;6.47;3.30;;;;;;;;;;4993978;28;20219;-70
2023/05/25 13:09:36;;;;;;;5.83;3.23;;;;;;;;;;5011547;28;20206;-71
2023/05/25 13:12:03;;;;;;;6.53;2.83;;;;;;;;;;4993839;28;20211;-71
2023/05/25 13:14:32;;;;;;;5.13;3.07;;;;;;;;;;5011482;28;20204;-70
2023/05/25 13:16:59;;;;;;;6.83;3.33;;;;;;;;;;4978610;28;20236;-70
2023/05/25 13:19:27;;;;;;;7.77;3.60;;;;;;;;;;4991559;28;20251;-71
2023/05/25 13:21:55;;;;;;;6.47;3.27;;;;;;;;;;4991315;28;20276;-70
2023/05/25 13:24:23;;;;;;;11.10;3.60;;;;;;;;;;4974412;28;20189;-71
2023/05/25 13:26:49;;;;;;;8.87;3.53;;;;;;;;;;4991213;28;20181;-70
2023/05/25 13:29:16;;;;;;;6.77;3.37;;;;;;;;;;4974331;28;20189;-70
2023/05/25 13:31:43;;;;;;;5.67;3.10;;;;;;;;;;4991218;28;20192;-71
2023/05/25 13:34:10;;;;;;;6.53;3.30;;;;;;;;;;4973978;28;20219;-71
2023/05/25 13:36:37;;;;;;;7.87;3.27;;;;;;;;;;4991135;28;20291;-70
2023/05/25 13:39:04;;;;;;;4.67;3.20;;;;;;;;;;4991110;28;20196;-70
2023/05/25 13:41:31;;;;;;;5.37;3.17;;;;;;;;;;4973522;28;20203;-70
2023/05/25 13:43:57;;;;;;;4.80;3.33;;;;;;;;;;4973720;28;20657;-70
2023/05/25 13:46:24;;;;;;;6.10;3.43;;;;;;;;;;4973886;28;20296;-70
2023/05/25 13:48:59;;;;;;;6.20;2.80;;;;;;;;;;4975128;28;20181;-70
2023/05/25 13:51:26;;;;;;;4.63;3.03;;;;;;;;;;4991082;28;20193;-70
2023/05/25 13:53:53;;;;;;;5.40;2.80;;;;;;;;;;4990608;28;20193;-71
2023/05/25 13:56:21;;;;;;;6.20;3.07;;;;;;;;;;4973491;28;20737;-72
2023/05/25 13:58:48;;;;;;;7.80;2.80;;;;;;;;;;4990394;28;20204;-70
2023/05/25 14:01:15;;;;;;;6.00;2.70;;;;;;;;;;4973661;28;20271;-70
2023/05/25 14:03:42;;;;;;;4.63;3.10;;;;;;;;;;4973445;28;20200;-71
2023/05/25 14:06:09;;;;;;;6.23;2.80;;;;;;;;;;4990607;28;20663;-70
2023/05/25 14:08:36;;;;;;;5.17;3.20;;;;;;;;;;4990852;28;20224;-70
2023/05/25 14:11:03;;;;;;;4.30;3.00;;;;;;;;;;4990728;28;20188;-70
2023/05/25 14:13:29;;;;;;;4.83;3.43;;;;;;;;;;4973462;28;20263;-70
2023/05/25 14:15:56;;;;;;;7.90;3.03;;;;;;;;;;4996034;28;20558;-70
2023/05/25 14:18:23;;;;;;;8.97;3.27;;;;;;;;;;5009855;28;20613;-70
2023/05/25 14:20:49;;;;;;;6.13;3.47;;;;;;;;;;4992423;28;20198;-70
2023/05/25 14:23:18;;;;;;;4.70;2.83;;;;;;;;;;4992063;28;20659;-70
2023/05/25 14:25:45;;;;;;;6.07;3.20;;;;;;;;;;5010056;28;20192;-70
2023/05/25 14:28:12;;;;;;;4.27;2.77;;;;;;;;;;4992648;28;20200;-70
2023/05/25 14:30:39;;;;;;;7.00;2.93;;;;;;;;;;5010006;28;20199;-70
2023/05/25 14:33:06;;;;;;;5.37;2.83;;;;;;;;;;4992556;28;20184;-70
2023/05/25 14:35:32;;;;;;;6.23;3.30;;;;;;;;;;5010282;28;20199;-70
2023/05/25 14:38:01;;;;;;;6.20;3.00;;;;;;;;;;5010184;28;20271;-70
2023/05/25 14:40:28;;;;;;;4.23;3.00;;;;;;;;;;5009742;28;20239;-70
2023/05/25 14:42:54;;;;;;;6.97;3.40;;;;;;;;;;5010047;28;20223;-70
2023/05/25 14:45:23;;;;;;;6.70;2.90;;;;;;;;;;5010035;28;20614;-71
2023/05/25 14:47:50;;;;;;;5.00;2.70;;;;;;;;;;4992702;28;20192;-70
2023/05/25 14:50:33;;;;;;;5.77;2.60;;;;;;;;;;5009741;28;20192;-70
2023/05/25 14:53:01;;;;;;;7.13;3.10;;;;;;;;;;5009663;28;20763;-70
2023/05/25 14:55:28;;;;;;;5.77;3.10;;;;;;;;;;5009906;28;20194;-70
2023/05/25 14:57:54;;;;;;;6.03;3.60;;;;;;;;;;5009323;28;20295;-70
2023/05/25 15:00:21;;;;;;;6.20;3.00;;;;;;;;;;4992277;28;20184;-71
2023/05/25 15:02:48;;;;;;;7.13;3.20;;;;;;;;;;5009733;28;20675;-71
2023/05/25 15:05:15;;;;;;;7.17;3.00;;;;;;;;;;5009996;28;20184;-71
2023/05/25 15:07:42;;;;;;;8.77;2.67;;;;;;;;;;4976270;28;20279;-71
2023/05/25 15:10:08;;;;;;;4.20;2.70;;;;;;;;;;5009680;28;20199;-71
2023/05/25 15:12:35;;;;;;;5.03;2.83;;;;;;;;;;5009690;28;20195;-71
2023/05/25 15:15:03;;;;;;;6.70;3.50;;;;;;;;;;4992708;28;20181;-71